Metar Cercanos

 

LEPA - Palma De Mallorc, Spain
Distance from station: ONO 38km
Actualización: Tue, 25-Jan-2022 2:00pm CET
Parcialmente nuboso
Parcialmente nuboso
 Viento del ENE
Viento: ENE 17 km/h
Temperatura: 14°C
Rocío: 7°C
Humedad: 63%
Barómetro: 1031 hPa
Clouds: Parcialmente nuboso
Visibility: 10 km
Cloud details: Parcialmente nuboso 792 m
2022/01/25 13:00 LEPA 251300Z 06009KT 010V080 9999 SCT026 14/07 Q1031 NOSIG
LEMH - Mahon/Menorca Is, Spain
Distance from station: ENE 105km
Actualización: Tue, 25-Jan-2022 2:00pm CET
Muy nuboso
Muy nuboso
 Viento del NNE
Viento: NNE 15 km/h
Temperatura: 12°C
Rocío: 6°C
Humedad: 67%
Barómetro: 1032 hPa
Clouds: Muy nuboso
Visibility: 10 km
Cloud details: Muy nuboso 792 m
2022/01/25 13:00 LEMH 251300Z 03008KT 350V050 9999 BKN026 12/06 Q1032
 
LEIB - Ibiza/Es Codola, Spain
Distance from station: OSO 165km
Actualización: Tue, 25-Jan-2022 2:00pm CET
Muy nuboso
Muy nuboso
 Viento del ENE
Viento: ENE 22 km/h
Temperatura: 14°C
Rocío: 8°C
Humedad: 67%
Barómetro: 1031 hPa
Clouds: Muy nuboso
Visibility: 10 km
Cloud details: Few Clouds 701 m
Parcialmente nuboso 823 m
Muy nuboso 1067 m
2022/01/25 13:00 LEIB 251300Z 06012KT 9999 FEW023 SCT027 BKN035 14/08 Q1031 NOSIG
LEBL - Barcelona Airpor, Spain
Distance from station: NNO 225km
Actualización: Tue, 25-Jan-2022 2:00pm CET
Few Clouds
Few Clouds
 Viento del S
Viento: S 9 km/h
Temperatura: 13°C
Rocío: 6°C
Humedad: 63%
Barómetro: 1032 hPa
Clouds: Few Clouds
Visibility: 10 km
Cloud details: Few Clouds 914 m
2022/01/25 13:00 LEBL 251300Z 17005KT 130V200 9999 FEW030 13/06 Q1032 NOSIG
 
LEVC - Valencia (civ/Mi, Spain
Distance from station: NO 188km
Actualización: Tue, 25-Jan-2022 2:00pm CET
Muy nuboso
Muy nuboso
 Viento del ENE
Viento: ENE 20 km/h
Temperatura: 13°C
Rocío: 8°C
Humedad: 72%
Barómetro: 1032 hPa
Clouds: Muy nuboso
Visibility: 10 km
Cloud details: Muy nuboso 762 m
2022/01/25 13:00 LEVC 251300Z 07011KT 9999 BKN025 13/08 Q1032 NOSIG
LEGE - Gerona/Costa Bra, Spain
Distance from station: N 276km
Actualización: Tue, 25-Jan-2022 2:00pm CET
Despejado
Despejado
 Viento del SSE
Viento: SSE 7 km/h
Temperatura: 13°C
Rocío: 7°C
Humedad: 67%
Barómetro: 1032 hPa
Resumen: Despejado
Visibility: greater than 10 km
2022/01/25 13:00 LEGE 251300Z 16004KT 110V210 CAVOK 13/07 Q1032
 
LEAL - Alicante/El Alte, Spain
Distance from station: OSO 344km
Actualización: Tue, 25-Jan-2022 2:00pm CET
Muy nuboso
Muy nuboso
 Viento del ENE
Viento: ENE 33 km/h
Temperatura: 14°C
Rocío: 8°C
Humedad: 67%
Barómetro: 1030 hPa
Clouds: Muy nuboso
Visibility: 10 km
Cloud details: Muy nuboso 1585 m
2022/01/25 13:00 LEAL 251300Z 07018KT 9999 BKN052 14/08 Q1030 NOSIG
LEAM - Almeria Airport, Spain
Distance from station: SSO 56km
Actualización: Tue, 25-Jan-2022 2:00pm CET
Few Clouds
Few Clouds
 Viento del ENE
Viento: ENE 35 km/h, Racha: 56 km/h
Temperatura: 16°C
Rocío: 7°C
Humedad: 55%
Barómetro: 1028 hPa
Clouds: Few Clouds
Visibility: 10 km
Cloud details: Few Clouds 914 m
2022/01/25 13:00 LEAM 251300Z 07019G30KT 9999 FEW030 16/07 Q1028
 
LEZG - Zaragoza (mil/Ci, Spain
Distance from station: NO 431km
Actualización: Tue, 25-Jan-2022 2:00pm CET
Despejado
Despejado
 Viento del varies
Viento: varies 2 km/h
Temperatura: 9°C
Rocío: 2°C
Humedad: 62%
Barómetro: 1032 hPa
Resumen: Despejado
Visibility: greater than 10 km
2022/01/25 13:00 LEZG 251300Z VRB01KT CAVOK 09/02 Q1032
LEMD - Madrid/Barajas, Spain
Distance from station: ONO 234km
Actualización: Tue, 25-Jan-2022 2:00pm CET
Muy nuboso
Muy nuboso
 Viento del S
Viento: S 2 km/h
Temperatura: 10°C
Rocío: 2°C
Humedad: 58%
Barómetro: 1030 hPa
Clouds: Muy nuboso
Visibility: 10 km
Cloud details: Muy nuboso 1189 m
2022/01/25 13:00 LEMD 251300Z 18001KT 9999 BKN039 10/02 Q1030 NOSIG
 
LEGR - Granada Airport, Spain
Distance from station: OSO 62km
Actualización: Tue, 25-Jan-2022 2:00pm CET
Few Clouds
Few Clouds
 Viento del varies
Viento: varies 2 km/h
Temperatura: 13°C
Rocío: 3°C
Humedad: 51%
Barómetro: 1026 hPa
Clouds: Few Clouds
Visibility: 10 km
Cloud details: Few Clouds 1219 m
2022/01/25 13:00 LEGR 251300Z VRB01KT 9999 FEW040 13/03 Q1026
LEMG - Malaga (civ/Mil), Spain
Distance from station: OSO 227km
Actualización: Tue, 25-Jan-2022 2:00pm CET
Muy nuboso
Muy nuboso
 Viento del E
Viento: E 28 km/h
Temperatura: 15°C
Rocío: 10°C
Humedad: 72%
Barómetro: 1026 hPa
Clouds: Muy nuboso
Visibility: 10 km
Cloud details: Muy nuboso 1829 m
Muy nuboso 2438 m
2022/01/25 13:00 LEMG 251300Z 10015KT 080V140 9999 BKN060 BKN080 15/10 Q1026 NOSIG
 
LEZL - Sevilla (civ/Mil, Spain
Distance from station: S 318km
Actualización: Tue, 25-Jan-2022 2:00pm CET
Despejado
Despejado
 Viento del ENE
Viento: ENE 20 km/h
Temperatura: 16°C
Rocío: 5°C
Humedad: 48%
Barómetro: 1026 hPa
Resumen: Despejado
Visibility: greater than 10 km
2022/01/25 13:00 LEZL 251300Z 06011KT CAVOK 16/05 Q1026 NOSIG
LEVT - Vitoria, Spain
Distance from station: NO 226km
Actualización: Tue, 25-Jan-2022 2:00pm CET
Despejado
Despejado
 Viento del SO
Viento: SO 6 km/h
Temperatura: 8°C
Rocío: 2°C
Humedad: 66%
Barómetro: 1031 hPa
Resumen: Despejado
Visibility: greater than 10 km
2022/01/25 13:00 LEVT 251300Z 22003KT 160V300 CAVOK 08/02 Q1031
 
LEBB - Bilbao/Sondica, Spain
Distance from station: NNO 235km
Actualización: Tue, 25-Jan-2022 2:00pm CET
Despejado
Despejado
 Viento del ESE
Viento: ESE 9 km/h
Temperatura: 15°C
Rocío: 3°C
Humedad: 45%
Barómetro: 1031 hPa
Resumen: Despejado
Visibility: greater than 10 km
2022/01/25 13:00 LEBB 251300Z 11005KT 060V160 CAVOK 15/03 Q1031 NOSIG
LESO - San Sebastian/Fu, Spain
Distance from station: N 231km
Actualización: Tue, 25-Jan-2022 2:00pm CET
Despejado
Despejado
 Viento del varies
Viento: varies 13 km/h
Temperatura: 13°C
Rocío: 8°C
Humedad: 72%
Barómetro: 1032 hPa
Resumen: Despejado
Visibility: greater than 10 km
2022/01/25 13:00 LESO 251300Z VRB07KT CAVOK 13/08 Q1032
 
LEVD - Valladolid(Mil/C, Spain
Distance from station: ONO 239km
Actualización: Tue, 25-Jan-2022 2:00pm CET
Few Clouds
Few Clouds
 Viento del E
Viento: E 11 km/h
Temperatura: 8°C
Sensación frio: 6°C
Rocío: -1°C
Humedad: 53%
Barómetro: 1030 hPa
Clouds: Few Clouds
Visibility: 10 km
Cloud details: Few Clouds 914 m
2022/01/25 13:00 LEVD 251300Z 08006KT 060V120 9999 FEW030 08/M01 Q1030
LESA - Salamanca (civ/M, Spain
Distance from station: ONO 349km
Actualización: Tue, 25-Jan-2022 2:00pm CET
Muy nuboso
Muy nuboso
 Viento del ESE
Viento: ESE 19 km/h
Temperatura: 10°C
Sensación frio: 7°C
Rocío: 1°C
Humedad: 54%
Barómetro: 1029 hPa
Clouds: Muy nuboso
Visibility: 10 km
Cloud details: Few Clouds 1006 m
Muy nuboso 1219 m
2022/01/25 13:00 LESA 251300Z 11010KT 070V140 9999 FEW033 BKN040 10/01 Q1029
 
LEXJ - Santander/Paraya, Spain
Distance from station: NNO 247km
Actualización: Tue, 25-Jan-2022 2:00pm CET
Despejado
Despejado
 Viento del NE
Viento: NE 9 km/h
Temperatura: 12°C
Rocío: 8°C
Humedad: 77%
Barómetro: 1031 hPa
Resumen: Despejado
Visibility: greater than 10 km
2022/01/25 13:00 LEXJ 251300Z 04005KT 010V090 CAVOK 12/08 Q1031
LEAS - Asturias/Aviles, Spain
Distance from station: NO 214km
Actualización: Tue, 25-Jan-2022 2:00pm CET
Few Clouds
Few Clouds
 Viento del varies
Viento: varies 6 km/h
Temperatura: 12°C
Rocío: 5°C
Humedad: 63%
Barómetro: 1031 hPa
Clouds: Few Clouds
Visibility: 10 km
Cloud details: Few Clouds 640 m
2022/01/25 13:00 LEAS 251300Z VRB03KT 9999 FEW021 12/05 Q1031 NOSIG
 
LECO - La Coruna/Alvedr, Spain
Distance from station: ONO 222km
Actualización: Tue, 25-Jan-2022 2:00pm CET
Despejado
Despejado
 Viento del varies
Viento: varies 4 km/h
Temperatura: 13°C
Rocío: 3°C
Humedad: 51%
Barómetro: 1031 hPa
Resumen: Despejado
Visibility: greater than 10 km
2022/01/25 13:00 LECO 251300Z VRB02KT CAVOK 13/03 Q1031 NOSIG
LEVX - Vigo/Peinador, Spain
Distance from station: O 214km
Actualización: Tue, 25-Jan-2022 2:00pm CET
Despejado
Despejado
 Viento del varies
Viento: varies 6 km/h
Temperatura: 13°C
Rocío: 5°C
Humedad: 59%
Barómetro: 1030 hPa
Resumen: Despejado
Visibility: greater than 10 km
2022/01/25 13:00 LEVX 251300Z VRB03KT CAVOK 13/05 Q1030 NOSIG